createdAt,value
2023-03-12T02:19:52.558Z,0.50
2023-03-12T02:22:20.994Z,0.50
2023-03-12T02:24:52.214Z,0.50
2023-03-12T02:27:22.516Z,0.40
2023-03-12T02:29:50.550Z,0.52
2023-03-12T02:32:21.342Z,0.77
2023-03-12T02:34:50.723Z,0.75
2023-03-12T02:37:18.537Z,0.55
2023-03-12T02:39:47.680Z,0.82
2023-03-12T02:42:15.581Z,0.60
2023-03-12T02:44:44.867Z,0.50
2023-03-12T02:47:12.454Z,0.40
2023-03-12T02:49:40.074Z,0.50
2023-03-12T02:52:07.688Z,0.45
2023-03-12T02:54:35.239Z,0.60
2023-03-12T02:57:02.844Z,0.60
2023-03-12T02:59:30.448Z,0.77
2023-03-12T03:02:00.183Z,0.63
2023-03-12T03:04:28.565Z,0.40
2023-03-12T03:06:56.364Z,0.50
2023-03-12T03:09:24.427Z,0.37
2023-03-12T03:11:52.004Z,0.60
2023-03-12T03:14:19.677Z,0.68
2023-03-12T03:16:47.237Z,0.63
2023-03-12T03:19:16.167Z,1.08
2023-03-12T03:21:44.068Z,0.60
2023-03-12T03:24:11.651Z,0.52
2023-03-12T03:26:39.234Z,0.70
2023-03-12T03:29:06.916Z,0.60
2023-03-12T03:31:34.462Z,0.40
2023-03-12T03:34:02.058Z,0.60
2023-03-12T03:36:31.026Z,0.30
2023-03-12T03:38:58.599Z,0.75
2023-03-12T03:41:26.209Z,0.70
2023-03-12T03:43:56.785Z,0.60
2023-03-12T03:46:24.440Z,0.60
2023-03-12T03:48:52.098Z,0.93
2023-03-12T03:51:20.029Z,0.73
2023-03-12T03:53:48.973Z,0.60
2023-03-12T03:56:17.359Z,0.40
2023-03-12T03:58:45.239Z,0.32
2023-03-12T04:01:13.709Z,0.75
2023-03-12T04:03:41.283Z,0.50
2023-03-12T04:06:09.343Z,0.73
2023-03-12T04:08:37.606Z,0.40
2023-03-12T04:11:10.441Z,0.50
2023-03-12T04:13:38.142Z,0.70
2023-03-12T04:16:05.955Z,1.13
2023-03-12T04:18:33.567Z,0.67
2023-03-12T04:21:01.156Z,0.40
2023-03-12T04:23:28.849Z,0.55
2023-03-12T04:25:56.415Z,0.50
2023-03-12T04:28:25.372Z,0.43
2023-03-12T04:30:55.676Z,0.60
2023-03-12T04:33:23.274Z,0.40
2023-03-12T04:35:53.960Z,0.40
2023-03-12T04:38:22.156Z,0.50
2023-03-12T04:40:58.159Z,0.47
2023-03-12T04:43:27.205Z,0.27
2023-03-12T04:45:54.768Z,0.70
2023-03-12T04:48:22.397Z,0.55
2023-03-12T04:50:50.278Z,0.40
2023-03-12T04:53:18.114Z,0.47
2023-03-12T04:55:45.775Z,0.33
2023-03-12T04:58:13.345Z,0.52
2023-03-12T05:00:42.377Z,0.50
2023-03-12T05:03:10.064Z,0.50
2023-03-12T05:05:37.883Z,0.32
2023-03-12T05:08:05.767Z,0.40
2023-03-12T05:10:33.607Z,0.45
2023-03-12T05:13:01.248Z,0.30
2023-03-12T05:15:28.782Z,0.55
2023-03-12T05:17:57.827Z,0.40
2023-03-12T05:20:25.393Z,0.80
2023-03-12T05:22:53.076Z,0.60
2023-03-12T05:25:20.718Z,0.77
2023-03-12T05:27:48.319Z,0.77
2023-03-12T05:30:16.154Z,0.47
2023-03-12T05:32:43.869Z,0.30
2023-03-12T05:35:12.954Z,0.60
2023-03-12T05:37:42.742Z,0.45
2023-03-12T05:40:11.761Z,0.82
2023-03-12T05:42:39.378Z,0.77
2023-03-12T05:45:07.599Z,0.60
2023-03-12T05:47:35.140Z,0.52
2023-03-12T05:50:02.775Z,0.40
2023-03-12T05:52:31.708Z,0.60
2023-03-12T05:54:59.406Z,0.77
2023-03-12T05:57:27.105Z,0.53
2023-03-12T05:59:54.691Z,0.75
2023-03-12T06:02:22.343Z,0.60
2023-03-12T06:04:50.085Z,0.77
2023-03-12T06:07:17.656Z,0.57
2023-03-12T06:09:46.634Z,0.93
2023-03-12T06:12:14.224Z,0.55
2023-03-12T06:14:41.803Z,0.80
2023-03-12T06:17:09.511Z,1.00
2023-03-12T06:19:37.085Z,0.75
2023-03-12T06:22:04.948Z,0.60
2023-03-12T06:24:32.486Z,0.63
2023-03-12T06:27:01.426Z,0.50
2023-03-12T06:29:28.982Z,0.60
2023-03-12T06:31:56.631Z,0.50
2023-03-12T06:34:24.412Z,0.27
2023-03-12T06:36:52.040Z,0.50
2023-03-12T06:39:19.601Z,0.70
2023-03-12T06:41:47.177Z,0.35
2023-03-12T06:44:16.064Z,0.65
2023-03-12T06:46:44.325Z,0.50
2023-03-12T06:49:11.946Z,0.80
2023-03-12T06:51:39.750Z,0.50
2023-03-12T06:54:07.316Z,0.57
2023-03-12T06:56:34.880Z,0.47
2023-03-12T06:59:02.442Z,0.50
2023-03-12T07:01:31.442Z,0.50
2023-03-12T07:03:59.475Z,0.50
2023-03-12T07:06:27.089Z,0.88
2023-03-12T07:08:54.712Z,0.50
2023-03-12T07:11:22.753Z,0.40
2023-03-12T07:13:51.573Z,0.50
2023-03-12T07:16:21.898Z,0.50
2023-03-12T07:18:50.898Z,0.50
2023-03-12T07:21:22.766Z,0.57
2023-03-12T07:23:50.513Z,0.60
2023-03-12T07:26:18.479Z,0.98
2023-03-12T07:28:46.274Z,0.60
2023-03-12T07:31:13.870Z,0.60
2023-03-12T07:33:41.575Z,0.63
2023-03-12T07:36:10.828Z,0.90
2023-03-12T07:38:38.474Z,0.50
2023-03-12T07:41:06.280Z,0.65
2023-03-12T07:43:33.972Z,0.50
2023-03-12T07:46:01.671Z,0.60
2023-03-12T07:48:29.258Z,0.50
2023-03-12T07:50:56.808Z,0.50
2023-03-12T07:53:25.761Z,0.70
2023-03-12T07:55:54.906Z,0.60
2023-03-12T07:58:23.209Z,0.80
2023-03-12T08:00:51.054Z,1.00
2023-03-12T08:03:18.847Z,0.90
2023-03-12T08:05:46.819Z,1.10
2023-03-12T08:08:14.461Z,0.77
2023-03-12T08:10:44.665Z,0.90
2023-03-12T08:13:12.321Z,0.87
2023-03-12T08:15:39.961Z,1.02
2023-03-12T08:18:07.552Z,1.00
2023-03-12T08:20:35.122Z,0.70
2023-03-12T08:23:02.901Z,0.90
2023-03-12T08:25:30.502Z,0.90
2023-03-12T08:27:59.778Z,0.70
2023-03-12T08:30:30.126Z,0.98
2023-03-12T08:33:00.719Z,0.80
2023-03-12T08:35:28.579Z,0.90
2023-03-12T08:37:57.040Z,1.10
2023-03-12T08:40:24.794Z,0.90
2023-03-12T08:42:52.387Z,1.10
2023-03-12T08:45:21.490Z,0.70
2023-03-12T08:47:50.283Z,0.98
2023-03-12T08:50:17.955Z,1.00
2023-03-12T08:52:45.499Z,1.20
2023-03-12T08:55:13.490Z,1.30
2023-03-12T08:57:41.426Z,1.40
2023-03-12T09:00:14.973Z,1.55
2023-03-12T09:02:45.719Z,1.50
2023-03-12T09:05:13.913Z,1.65
2023-03-12T09:07:41.809Z,1.80
2023-03-12T09:10:10.208Z,1.75
2023-03-12T09:12:37.793Z,1.50
2023-03-12T09:15:05.725Z,1.70
2023-03-12T09:17:33.365Z,1.92
2023-03-12T09:20:02.437Z,2.30
2023-03-12T09:22:30.447Z,1.85
2023-03-12T09:24:58.075Z,2.00
2023-03-12T09:27:25.664Z,2.00
2023-03-12T09:30:00.229Z,1.92
2023-03-12T09:32:28.827Z,1.80
2023-03-12T09:34:56.548Z,2.25
2023-03-12T09:37:25.576Z,1.70
2023-03-12T09:39:53.649Z,1.77
2023-03-12T09:42:24.085Z,1.83
2023-03-12T09:44:52.458Z,1.70
2023-03-12T09:47:25.225Z,1.90
2023-03-12T09:49:56.916Z,1.50
2023-03-12T09:52:29.176Z,1.60
2023-03-12T09:55:00.443Z,1.70
2023-03-12T09:57:29.835Z,1.80
2023-03-12T09:59:57.814Z,1.60
2023-03-12T10:02:42.359Z,1.60
2023-03-12T10:05:12.885Z,1.77
2023-03-12T10:07:44.182Z,2.08
2023-03-12T10:10:16.870Z,2.10
2023-03-12T10:12:49.615Z,2.00
2023-03-12T10:15:23.542Z,2.45
2023-03-12T10:17:59.363Z,2.33
2023-03-12T10:20:34.676Z,2.28
2023-03-12T10:23:08.633Z,2.50
2023-03-12T10:25:37.992Z,2.25
2023-03-12T10:28:12.720Z,2.08
2023-03-12T10:30:42.512Z,2.80
2023-03-12T10:33:13.493Z,2.88
2023-03-12T10:35:41.589Z,1.95
2023-03-12T10:38:14.411Z,3.13
2023-03-12T10:40:42.275Z,2.50
2023-03-12T10:43:10.069Z,2.60
2023-03-12T10:45:40.117Z,2.25
2023-03-12T10:48:08.831Z,2.38
2023-03-12T10:50:37.215Z,2.75
2023-03-12T10:53:20.044Z,2.63
2023-03-12T10:55:59.126Z,3.17
2023-03-12T10:58:27.244Z,3.30
2023-03-12T11:00:58.985Z,3.25
2023-03-12T11:03:27.061Z,2.90
2023-03-12T11:05:55.509Z,3.22
2023-03-12T11:08:27.210Z,2.80
2023-03-12T11:10:56.346Z,2.50
2023-03-12T11:13:28.827Z,3.20
2023-03-12T11:15:57.196Z,2.53
2023-03-12T11:18:26.940Z,3.35
2023-03-12T11:20:56.522Z,2.80
2023-03-12T11:23:27.555Z,2.63
2023-03-12T11:25:56.455Z,2.88
2023-03-12T11:28:25.739Z,3.60
2023-03-12T11:30:54.339Z,2.13
2023-03-12T11:33:22.051Z,3.20
2023-03-12T11:35:54.730Z,2.78
2023-03-12T11:38:26.377Z,2.80
2023-03-12T11:41:03.273Z,2.60
2023-03-12T11:43:43.719Z,2.50
2023-03-12T11:46:28.223Z,2.30
2023-03-12T11:49:02.830Z,3.33
2023-03-12T11:51:37.470Z,2.78
2023-03-12T11:54:15.608Z,3.17
2023-03-12T11:56:46.392Z,3.22
2023-03-12T11:59:19.252Z,3.13
2023-03-12T12:01:53.410Z,2.97
2023-03-12T12:04:36.672Z,3.40
2023-03-12T12:07:08.867Z,3.45
2023-03-12T12:09:39.563Z,2.90
2023-03-12T12:12:17.611Z,4.00
2023-03-12T12:14:52.700Z,4.40
2023-03-12T12:17:25.598Z,3.25
2023-03-12T12:20:00.119Z,4.53
2023-03-12T12:22:32.914Z,3.03
2023-03-12T12:25:12.996Z,2.60
2023-03-12T12:27:46.207Z,2.42
2023-03-12T12:30:19.634Z,2.90
2023-03-12T12:33:01.467Z,2.67
2023-03-12T12:35:34.144Z,2.58
2023-03-12T12:38:03.785Z,3.30
2023-03-12T12:40:33.299Z,2.92
2023-03-12T12:43:07.788Z,2.75
2023-03-12T12:45:39.285Z,2.60
2023-03-12T12:48:08.443Z,2.60
2023-03-12T12:50:38.021Z,2.63
2023-03-12T12:53:08.729Z,3.53
2023-03-12T12:55:38.875Z,3.45
2023-03-12T12:58:11.644Z,3.08
2023-03-12T13:00:45.479Z,3.42
2023-03-12T13:03:15.422Z,3.23
2023-03-12T13:05:46.963Z,4.00
2023-03-12T13:08:29.409Z,3.70
2023-03-12T13:11:15.845Z,3.70
2023-03-12T13:13:46.944Z,3.30
2023-03-12T13:16:18.660Z,2.50
2023-03-12T13:18:56.934Z,3.30
2023-03-12T13:21:26.828Z,3.28
2023-03-12T13:23:58.706Z,3.35
2023-03-12T13:26:29.753Z,3.38
2023-03-12T13:29:12.032Z,3.57
2023-03-12T13:31:40.913Z,2.92
2023-03-12T13:34:28.268Z,3.50
2023-03-12T13:36:59.384Z,4.85
2023-03-12T13:39:31.936Z,2.33
2023-03-12T13:42:00.576Z,4.20
2023-03-12T13:44:38.008Z,3.88
2023-03-12T13:47:06.603Z,3.38
2023-03-12T13:49:38.656Z,3.70
2023-03-12T13:52:17.586Z,3.05
2023-03-12T13:54:46.967Z,3.97
2023-03-12T13:57:23.105Z,3.65
2023-03-12T13:59:52.498Z,2.63
2023-03-12T14:02:23.641Z,3.17
2023-03-12T14:04:51.415Z,3.30
2023-03-12T14:07:26.225Z,3.33
2023-03-12T14:09:58.042Z,5.38
2023-03-12T14:12:30.212Z,5.55
2023-03-12T14:15:09.617Z,3.90
2023-03-12T14:17:37.877Z,4.47
2023-03-12T14:20:11.714Z,3.53
2023-03-12T14:22:40.606Z,3.65
2023-03-12T14:25:13.878Z,3.15
2023-03-12T14:27:41.863Z,2.95
2023-03-12T14:30:16.976Z,4.03
2023-03-12T14:32:45.460Z,3.63
2023-03-12T14:35:17.346Z,3.85
2023-03-12T14:37:45.632Z,3.95
2023-03-12T14:40:21.068Z,2.83
2023-03-12T14:42:48.682Z,3.67
2023-03-12T14:45:18.739Z,5.73
2023-03-12T14:47:47.269Z,3.97
2023-03-12T14:50:19.560Z,4.18
2023-03-12T14:52:47.118Z,3.72
2023-03-12T14:55:18.307Z,4.38
2023-03-12T14:57:46.443Z,4.20
2023-03-12T15:00:23.276Z,3.25
2023-03-12T15:02:52.271Z,3.05
2023-03-12T15:05:21.108Z,3.38
2023-03-12T15:07:49.635Z,2.42
2023-03-12T15:10:18.909Z,3.00
2023-03-12T15:12:46.883Z,4.63
2023-03-12T15:15:30.567Z,2.85
2023-03-12T15:17:59.066Z,4.63
2023-03-12T15:20:27.346Z,3.90
2023-03-12T15:22:55.003Z,4.70
2023-03-12T15:25:23.505Z,4.68
2023-03-12T15:28:01.490Z,4.25
2023-03-12T15:30:30.990Z,3.55
2023-03-12T15:33:08.375Z,3.78
2023-03-12T15:35:36.744Z,3.80
2023-03-12T15:38:04.806Z,3.63
2023-03-12T15:40:32.922Z,5.55
2023-03-12T15:43:03.294Z,4.40
2023-03-12T15:45:36.684Z,3.10
2023-03-12T15:48:05.336Z,3.53
2023-03-12T15:50:34.459Z,7.22
2023-03-12T15:53:02.990Z,4.60
2023-03-12T15:55:31.356Z,3.92
2023-03-12T15:57:59.470Z,6.78
2023-03-12T16:00:28.181Z,5.87
2023-03-12T16:02:58.624Z,5.03
2023-03-12T16:05:27.462Z,3.45
2023-03-12T16:07:55.265Z,4.95
2023-03-12T16:10:24.441Z,4.85
2023-03-12T16:12:52.481Z,4.60
2023-03-12T16:15:23.800Z,5.28
2023-03-12T16:17:51.420Z,4.68
2023-03-12T16:20:20.688Z,4.43
2023-03-12T16:22:48.318Z,3.70
2023-03-12T16:25:16.021Z,4.53
2023-03-12T16:27:46.991Z,5.53
2023-03-12T16:30:16.577Z,6.43
2023-03-12T16:32:44.249Z,3.85
2023-03-12T16:35:15.958Z,4.13
2023-03-12T16:37:44.912Z,4.17
2023-03-12T16:40:16.372Z,4.72
2023-03-12T16:42:50.987Z,3.67
2023-03-12T16:45:19.344Z,3.03
2023-03-12T16:47:47.102Z,4.43
2023-03-12T16:50:16.283Z,3.97
2023-03-12T16:52:46.888Z,3.80
2023-03-12T16:55:14.952Z,3.75
2023-03-12T16:57:45.363Z,2.60
2023-03-12T17:00:14.298Z,3.60
2023-03-12T17:02:41.886Z,3.03
2023-03-12T17:05:09.735Z,3.00
2023-03-12T17:07:37.416Z,2.85
2023-03-12T17:10:07.418Z,3.35
2023-03-12T17:12:36.734Z,3.28
2023-03-12T17:15:06.002Z,2.77
2023-03-12T17:17:33.586Z,3.58
2023-03-12T17:20:01.153Z,2.63
2023-03-12T17:22:28.749Z,4.57
2023-03-12T17:24:56.345Z,4.53
2023-03-12T17:27:25.299Z,4.03
2023-03-12T17:29:52.893Z,3.20
2023-03-12T17:32:20.694Z,3.33
2023-03-12T17:34:48.457Z,3.47
2023-03-12T17:37:16.172Z,3.10
2023-03-12T17:39:43.868Z,3.13
2023-03-12T17:42:11.488Z,2.47
2023-03-12T17:44:40.624Z,3.42
2023-03-12T17:47:08.235Z,3.72
2023-03-12T17:49:36.066Z,2.75
2023-03-12T17:52:03.784Z,4.10
2023-03-12T17:54:31.457Z,3.35
2023-03-12T17:56:59.002Z,3.05
2023-03-12T17:59:26.545Z,3.17
2023-03-12T18:01:55.599Z,3.88
2023-03-12T18:04:23.541Z,4.00
2023-03-12T18:06:51.182Z,3.15
2023-03-12T18:09:18.870Z,4.80
2023-03-12T18:11:46.438Z,4.40
2023-03-12T18:14:14.083Z,2.97
2023-03-12T18:16:41.922Z,4.47
2023-03-12T18:19:10.943Z,4.22
2023-03-12T18:21:38.502Z,4.63
2023-03-12T18:24:14.170Z,4.10
2023-03-12T18:26:42.393Z,3.08
2023-03-12T18:29:09.928Z,4.97
2023-03-12T18:31:37.682Z,4.00
2023-03-12T18:34:05.360Z,4.60
2023-03-12T18:36:34.380Z,4.72
2023-03-12T18:39:04.513Z,4.53
2023-03-12T18:41:33.012Z,4.70
2023-03-12T18:44:00.866Z,4.40
2023-03-12T18:46:28.461Z,4.72
2023-03-12T18:48:56.100Z,4.25
2023-03-12T18:51:23.664Z,3.47
2023-03-12T18:53:52.617Z,5.13
2023-03-12T18:56:20.182Z,5.68
2023-03-12T18:58:47.774Z,4.80
2023-03-12T19:01:15.503Z,3.95
2023-03-12T19:03:43.118Z,4.60
2023-03-12T19:06:12.260Z,6.03
2023-03-12T19:08:39.976Z,4.70
2023-03-12T19:11:10.076Z,4.40
2023-03-12T19:13:37.977Z,5.18
2023-03-12T19:16:08.362Z,4.88
2023-03-12T19:18:36.336Z,6.23
2023-03-12T19:21:04.016Z,6.13
2023-03-12T19:23:31.569Z,4.50
2023-03-12T19:25:59.351Z,6.95
2023-03-12T19:28:28.392Z,6.53
2023-03-12T19:31:00.082Z,5.83
2023-03-12T19:33:28.436Z,5.53
2023-03-12T19:35:56.158Z,7.18
2023-03-12T19:38:23.933Z,5.32
2023-03-12T19:40:53.182Z,6.60
2023-03-12T19:43:21.801Z,7.50
2023-03-12T19:45:50.936Z,6.15
2023-03-12T19:48:18.591Z,6.68
2023-03-12T19:50:46.180Z,6.38
2023-03-12T19:53:13.994Z,5.72
2023-03-12T19:55:41.569Z,7.07
2023-03-12T19:58:09.258Z,6.85
2023-03-12T20:00:37.037Z,6.20
2023-03-12T20:03:06.149Z,5.88
2023-03-12T20:05:33.930Z,5.95
2023-03-12T20:08:01.499Z,4.63
2023-03-12T20:10:29.374Z,6.75
2023-03-12T20:12:57.066Z,6.93
2023-03-12T20:15:24.739Z,5.53
2023-03-12T20:17:54.647Z,5.35
2023-03-12T20:20:23.698Z,4.70
2023-03-12T20:22:51.395Z,5.15
2023-03-12T20:25:19.092Z,4.43
2023-03-12T20:27:47.196Z,5.05
2023-03-12T20:30:15.304Z,3.75
2023-03-12T20:32:43.712Z,3.27
2023-03-12T20:35:11.345Z,3.95
2023-03-12T20:37:40.244Z,3.10
2023-03-12T20:40:08.798Z,3.75
2023-03-12T20:42:36.381Z,4.10
2023-03-12T20:45:04.255Z,3.83
2023-03-12T20:47:34.553Z,4.07
2023-03-12T20:50:02.428Z,4.13
2023-03-12T20:52:30.048Z,4.07
2023-03-12T20:54:59.050Z,3.22
2023-03-12T20:57:26.765Z,3.43
2023-03-12T20:59:54.284Z,3.88
2023-03-12T21:02:21.868Z,4.38
2023-03-12T21:04:52.516Z,3.70
2023-03-12T21:07:20.046Z,3.47
2023-03-12T21:09:47.590Z,3.90
2023-03-12T21:12:16.581Z,3.13
2023-03-12T21:14:44.153Z,3.58
2023-03-12T21:17:13.681Z,4.28
2023-03-12T21:19:41.943Z,3.08
2023-03-12T21:22:09.989Z,3.40
2023-03-12T21:24:37.580Z,3.15
2023-03-12T21:27:05.192Z,3.53
2023-03-12T21:29:34.103Z,3.03
2023-03-12T21:32:01.648Z,4.00
2023-03-12T21:34:29.937Z,2.97
2023-03-12T21:36:57.747Z,3.53
2023-03-12T21:39:27.067Z,3.20
2023-03-12T21:41:54.611Z,3.50
2023-03-12T21:44:22.221Z,2.95
2023-03-12T21:46:51.829Z,3.30
2023-03-12T21:49:19.500Z,4.43
2023-03-12T21:51:47.048Z,3.30
2023-03-12T21:54:14.611Z,3.47
2023-03-12T21:56:42.214Z,3.47
2023-03-12T21:59:10.553Z,4.67
2023-03-12T22:01:38.168Z,3.35
2023-03-12T22:04:07.255Z,3.22
2023-03-12T22:06:34.790Z,3.38
2023-03-12T22:09:02.333Z,3.45
2023-03-12T22:11:29.881Z,3.47
2023-03-12T22:13:57.742Z,3.72
2023-03-12T22:16:25.352Z,4.00
2023-03-12T22:18:52.979Z,4.20
2023-03-12T22:21:22.762Z,4.22
2023-03-12T22:23:51.245Z,2.63
2023-03-12T22:26:19.097Z,2.92
2023-03-12T22:28:49.165Z,3.25
2023-03-12T22:31:16.768Z,3.95
2023-03-12T22:33:44.404Z,3.53
2023-03-12T22:36:13.158Z,3.93
2023-03-12T22:38:42.766Z,3.40
2023-03-12T22:41:14.302Z,3.35
2023-03-12T22:43:41.968Z,2.60
2023-03-12T22:46:09.687Z,3.05
2023-03-12T22:48:37.879Z,3.30
2023-03-12T22:51:06.094Z,3.15
2023-03-12T22:53:33.890Z,3.45
2023-03-12T22:56:03.765Z,3.40
2023-03-12T22:58:31.405Z,4.45
2023-03-12T23:00:59.461Z,4.13
2023-03-12T23:03:27.544Z,3.38
2023-03-12T23:05:55.148Z,3.70
2023-03-12T23:08:23.093Z,3.35
2023-03-12T23:10:53.997Z,3.45
2023-03-12T23:13:23.027Z,4.03
2023-03-12T23:15:50.643Z,3.10
2023-03-12T23:18:18.315Z,3.47
2023-03-12T23:20:46.172Z,2.97
2023-03-12T23:23:15.539Z,3.28
2023-03-12T23:25:43.119Z,2.83
2023-03-12T23:28:10.695Z,3.55
2023-03-12T23:30:39.656Z,4.35
2023-03-12T23:33:07.218Z,3.42
2023-03-12T23:35:34.788Z,3.67
2023-03-12T23:38:02.431Z,3.60
2023-03-12T23:40:30.004Z,5.15
2023-03-12T23:42:57.665Z,3.65
2023-03-12T23:45:25.346Z,3.80
2023-03-12T23:47:54.333Z,3.60
2023-03-12T23:50:21.871Z,3.47
2023-03-12T23:52:49.417Z,3.47
2023-03-12T23:55:17.583Z,4.85
2023-03-12T23:57:45.169Z,4.63
